createdAt,value
2018-03-24T00:00:54.963Z,101226.77
2018-03-24T00:03:22.702Z,101239.07
2018-03-24T00:05:50.400Z,101241.84
2018-03-24T00:08:18.152Z,101240.78
2018-03-24T00:10:45.830Z,101237.04
2018-03-24T00:13:13.534Z,101244.62
2018-03-24T00:15:41.226Z,101243.07
2018-03-24T00:18:08.985Z,101239.70
2018-03-24T00:20:36.762Z,101240.78
2018-03-24T00:23:04.487Z,101244.49
2018-03-24T00:25:32.180Z,101239.52
2018-03-24T00:27:59.856Z,101248.11
2018-03-24T00:30:27.596Z,101248.95
2018-03-24T00:32:55.270Z,101252.29
2018-03-24T00:35:23.850Z,101256.16
2018-03-24T00:37:52.047Z,101254.21
2018-03-24T00:40:19.759Z,101250.35
2018-03-24T00:42:47.441Z,101257.88
2018-03-24T00:45:15.161Z,101248.18
2018-03-24T00:47:42.879Z,101246.95
2018-03-24T00:50:10.559Z,101250.84
2018-03-24T00:52:38.284Z,101249.45
2018-03-24T00:55:05.965Z,101255.23
2018-03-24T00:57:33.692Z,101254.97
2018-03-24T01:00:01.382Z,101255.62
2018-03-24T01:02:29.116Z,101249.99
2018-03-24T01:04:56.801Z,101244.34
2018-03-24T01:07:24.567Z,101249.95
2018-03-24T01:09:52.232Z,101244.59
2018-03-24T01:12:19.975Z,101241.56
2018-03-24T01:14:47.664Z,101257.95
2018-03-24T01:17:15.384Z,101261.77
2018-03-24T01:19:43.127Z,101257.13
2018-03-24T01:22:12.093Z,101258.09
2018-03-24T01:24:39.770Z,101256.19
2018-03-24T01:27:07.529Z,101260.17
2018-03-24T01:29:35.218Z,101252.03
2018-03-24T01:32:02.956Z,101254.11
2018-03-24T01:34:30.645Z,101249.70
2018-03-24T01:36:58.327Z,101254.98
2018-03-24T01:39:26.082Z,101256.45
2018-03-24T01:41:53.773Z,101245.96
2018-03-24T01:44:21.495Z,101249.44
2018-03-24T01:46:49.174Z,101249.72
2018-03-24T01:49:16.903Z,101244.38
2018-03-24T01:51:44.581Z,101240.69
2018-03-24T01:54:12.314Z,101241.88
2018-03-24T01:56:39.992Z,101250.02
2018-03-24T01:59:07.719Z,101255.95
2018-03-24T02:01:35.420Z,101248.13
2018-03-24T02:04:03.166Z,101243.29
2018-03-24T02:06:30.838Z,101247.55
2018-03-24T02:08:58.579Z,101241.44
2018-03-24T02:11:26.273Z,101236.99
2018-03-24T02:13:53.955Z,101235.20
2018-03-24T02:16:21.673Z,101242.63
2018-03-24T02:18:49.376Z,101243.64
2018-03-24T02:21:17.183Z,101245.80
2018-03-24T02:23:44.858Z,101244.16
2018-03-24T02:26:12.610Z,101251.44
2018-03-24T02:28:40.294Z,101252.16
2018-03-24T02:31:08.034Z,101248.96
2018-03-24T02:33:35.756Z,101245.33
2018-03-24T02:36:03.890Z,101246.01
2018-03-24T02:38:31.573Z,101250.88
2018-03-24T02:40:59.296Z,101250.42
2018-03-24T02:43:26.999Z,101257.72
2018-03-24T02:45:54.773Z,101264.36
2018-03-24T02:48:22.470Z,101266.59
2018-03-24T02:50:50.204Z,101269.77
2018-03-24T02:53:17.885Z,101270.86
2018-03-24T02:55:45.606Z,101275.72
2018-03-24T02:58:13.299Z,101269.62
2018-03-24T03:00:40.993Z,101274.73
2018-03-24T03:03:08.727Z,127682.19
2018-03-24T03:05:36.440Z,127682.19
2018-03-24T03:08:04.173Z,127682.19
2018-03-24T03:10:31.878Z,127682.19
2018-03-24T03:12:59.635Z,127682.19
2018-03-24T03:15:27.354Z,127682.19
2018-03-24T03:17:55.099Z,127682.19
2018-03-24T03:20:22.848Z,127682.19
2018-03-24T03:22:50.591Z,127682.19
2018-03-24T03:25:18.290Z,127682.19
2018-03-24T03:27:46.029Z,127682.19
2018-03-24T03:30:19.548Z,127682.19
2018-03-24T03:32:47.294Z,127682.19
2018-03-24T03:35:14.980Z,127682.19
2018-03-24T03:37:42.712Z,127682.19
2018-03-24T03:40:10.421Z,127682.19
2018-03-24T03:42:38.162Z,127682.19
2018-03-24T03:45:05.876Z,127682.19
2018-03-24T03:47:33.643Z,127682.19
2018-03-24T03:50:01.330Z,127682.19
2018-03-24T03:52:29.102Z,127682.19
2018-03-24T03:54:56.808Z,127682.19
2018-03-24T03:57:24.516Z,127682.19
2018-03-24T03:59:52.265Z,127682.19
2018-03-24T04:02:19.966Z,127682.19
2018-03-24T04:04:47.694Z,127682.19
2018-03-24T04:07:15.402Z,127682.19
2018-03-24T04:09:43.135Z,127682.19
2018-03-24T04:12:10.836Z,127682.19
2018-03-24T04:14:38.580Z,127682.19
2018-03-24T04:17:06.283Z,127682.19
2018-03-24T04:19:34.068Z,127682.19
2018-03-24T04:22:01.766Z,127682.19
2018-03-24T04:24:29.504Z,127682.19
2018-03-24T04:26:57.206Z,127682.19
2018-03-24T04:29:24.984Z,127682.19
2018-03-24T04:31:52.683Z,127682.19
2018-03-24T04:34:20.382Z,127682.19
2018-03-24T04:36:48.131Z,127682.19
2018-03-24T04:39:15.826Z,127682.19
2018-03-24T04:41:43.595Z,127682.19
2018-03-24T04:44:11.300Z,127682.19
2018-03-24T04:46:39.046Z,127682.19
2018-03-24T04:49:06.743Z,127682.19
2018-03-24T04:51:34.491Z,127682.19
2018-03-24T04:54:02.185Z,127682.19
2018-03-24T04:56:29.929Z,127682.19
2018-03-24T04:58:57.637Z,127682.19
2018-03-24T05:01:25.402Z,127682.19
2018-03-24T05:03:53.135Z,127682.19
2018-03-24T05:06:20.893Z,127682.19
2018-03-24T05:08:48.607Z,127682.19
2018-03-24T05:11:16.348Z,127682.19
2018-03-24T05:13:44.060Z,127682.19
2018-03-24T05:16:11.764Z,127682.19
2018-03-24T05:18:39.515Z,127682.19
2018-03-24T05:21:07.280Z,127682.19
2018-03-24T05:23:35.023Z,127682.19
2018-03-24T05:26:02.718Z,127682.19
2018-03-24T05:28:30.482Z,127682.19
2018-03-24T05:30:58.171Z,127682.19
2018-03-24T05:33:25.931Z,127682.19
2018-03-24T05:35:53.627Z,127682.19
2018-03-24T05:38:21.381Z,127682.19
2018-03-24T05:40:49.090Z,127682.19
2018-03-24T05:43:16.845Z,127682.19
2018-03-24T05:45:44.553Z,127682.19
2018-03-24T05:48:12.248Z,127682.19
2018-03-24T05:50:40.014Z,127682.19
2018-03-24T05:53:07.740Z,127682.19
2018-03-24T05:55:35.483Z,127682.19
2018-03-24T05:58:03.201Z,127682.19
2018-03-24T06:00:31.010Z,127682.19
2018-03-24T06:02:58.771Z,127682.19
2018-03-24T06:05:26.513Z,127682.19
2018-03-24T06:07:54.227Z,127682.19
2018-03-24T06:10:21.960Z,127682.19
2018-03-24T06:12:49.686Z,127682.19
2018-03-24T06:15:17.437Z,127682.19
2018-03-24T06:17:45.162Z,127682.19
2018-03-24T06:20:12.942Z,127682.19
2018-03-24T06:22:40.694Z,127682.19
2018-03-24T06:25:08.414Z,127682.19
2018-03-24T06:27:36.173Z,127682.19
2018-03-24T06:30:06.380Z,127682.19
2018-03-24T06:32:34.161Z,127682.19
2018-03-24T06:35:01.886Z,127682.19
2018-03-24T06:37:29.682Z,127682.19
2018-03-24T06:39:57.372Z,127682.19
2018-03-24T06:42:25.162Z,127682.19
2018-03-24T06:44:52.910Z,127682.19
2018-03-24T06:47:20.742Z,127682.19
2018-03-24T06:49:48.467Z,127682.19
2018-03-24T06:52:16.207Z,127682.19
2018-03-24T06:54:43.982Z,127682.19
2018-03-24T06:57:11.711Z,127682.19
2018-03-24T06:59:40.456Z,127682.19
2018-03-24T07:02:08.199Z,127682.19
2018-03-24T07:04:35.966Z,127682.19
2018-03-24T07:07:03.710Z,127682.19
2018-03-24T07:09:31.479Z,127682.19
2018-03-24T07:11:59.180Z,127682.19
2018-03-24T07:14:26.998Z,127682.19
2018-03-24T07:16:54.761Z,127682.19
2018-03-24T07:19:22.532Z,127682.19
2018-03-24T07:21:50.326Z,127682.19
2018-03-24T07:24:18.053Z,127682.19
2018-03-24T07:26:45.819Z,127682.19
2018-03-24T07:29:13.525Z,127682.19
2018-03-24T07:31:41.319Z,127682.19
2018-03-24T07:34:09.039Z,127682.19
2018-03-24T07:36:36.808Z,127682.19
2018-03-24T07:39:04.589Z,127682.19
2018-03-24T07:41:32.393Z,127682.19
2018-03-24T07:44:00.130Z,127682.19
2018-03-24T07:46:27.898Z,127682.19
2018-03-24T07:48:55.597Z,127682.19
2018-03-24T07:51:23.354Z,127682.19
2018-03-24T07:53:51.097Z,127682.19
2018-03-24T07:56:18.823Z,127682.19
2018-03-24T07:58:46.578Z,127682.19
2018-03-24T08:01:14.313Z,127682.19
2018-03-24T08:03:42.059Z,127682.19
2018-03-24T08:06:09.780Z,127682.19
2018-03-24T08:08:37.591Z,127682.19
2018-03-24T08:11:05.351Z,101325.71
2018-03-24T08:13:33.154Z,101328.50
2018-03-24T08:16:00.904Z,101337.22
2018-03-24T08:18:28.659Z,101341.92
2018-03-24T08:20:56.451Z,101345.11
2018-03-24T08:23:24.189Z,101343.73
2018-03-24T08:25:51.894Z,101343.98
2018-03-24T08:28:19.630Z,101344.63
2018-03-24T08:30:47.366Z,101345.49
2018-03-24T08:33:15.162Z,101343.68
2018-03-24T08:35:42.887Z,101354.48
2018-03-24T08:38:10.646Z,101362.35
2018-03-24T08:40:38.374Z,101364.72
2018-03-24T08:43:06.091Z,101359.05
2018-03-24T08:45:33.790Z,101360.56
2018-03-24T08:48:02.330Z,101357.61
2018-03-24T08:50:30.094Z,101362.02
2018-03-24T08:52:57.816Z,101362.97
2018-03-24T08:55:25.574Z,101358.89
2018-03-24T08:57:53.298Z,101357.98
2018-03-24T09:00:21.047Z,101362.89
2018-03-24T09:02:48.757Z,101366.19
2018-03-24T09:05:16.516Z,101366.19
2018-03-24T09:07:44.218Z,101359.75
2018-03-24T09:10:12.006Z,101365.11
2018-03-24T09:12:39.719Z,101370.08
2018-03-24T09:15:07.526Z,101368.84
2018-03-24T09:17:35.262Z,101375.19
2018-03-24T09:20:03.086Z,101368.43
2018-03-24T09:22:30.810Z,101366.67
2018-03-24T09:24:58.588Z,101375.63
2018-03-24T09:27:26.290Z,101374.48
2018-03-24T09:29:54.017Z,101367.11
2018-03-24T09:32:21.755Z,101365.30
2018-03-24T09:34:49.491Z,101368.31
2018-03-24T09:37:17.217Z,101361.87
2018-03-24T09:39:44.979Z,101363.48
2018-03-24T09:42:12.716Z,101365.66
2018-03-24T09:44:40.471Z,101357.06
2018-03-24T09:47:08.186Z,101360.23
2018-03-24T09:49:35.960Z,101358.07
2018-03-24T09:52:03.674Z,101353.98
2018-03-24T09:54:31.455Z,101360.67
2018-03-24T09:56:59.194Z,101352.69
2018-03-24T09:59:26.965Z,101366.59
2018-03-24T10:01:54.699Z,101362.03
2018-03-24T10:04:22.427Z,101358.28
2018-03-24T10:06:50.173Z,101356.02
2018-03-24T10:09:17.894Z,101361.98
2018-03-24T10:11:45.661Z,101355.81
2018-03-24T10:14:13.390Z,101359.11
2018-03-24T10:16:41.228Z,101351.89
2018-03-24T10:19:08.942Z,101353.24
2018-03-24T10:24:42.003Z,101352.73
2018-03-24T10:27:09.691Z,101348.38
2018-03-24T10:29:37.411Z,101343.91
2018-03-24T10:32:05.174Z,101345.77
2018-03-24T10:34:32.907Z,101343.89
2018-03-24T10:37:00.650Z,101335.03
2018-03-24T10:39:28.375Z,101338.03
2018-03-24T10:41:56.118Z,101327.48
2018-03-24T10:44:23.861Z,101330.33
2018-03-24T10:46:51.627Z,101320.08
2018-03-24T10:49:19.334Z,101323.48
2018-03-24T10:51:47.119Z,101322.55
2018-03-24T10:54:14.863Z,101318.27
2018-03-24T10:56:42.636Z,101313.75
2018-03-24T10:59:10.379Z,101317.02
2018-03-24T11:01:38.131Z,101316.26
2018-03-24T11:04:05.889Z,101311.06
2018-03-24T11:06:33.667Z,101312.01
2018-03-24T11:09:01.371Z,101302.99
2018-03-24T11:11:29.127Z,101306.72
2018-03-24T11:13:56.846Z,101305.89
2018-03-24T11:16:24.610Z,101301.87
2018-03-24T11:18:52.332Z,101306.20
2018-03-24T11:21:20.127Z,101300.03
2018-03-24T11:23:47.873Z,101295.83
2018-03-24T11:26:15.661Z,101292.41
2018-03-24T11:28:43.398Z,101291.72
2018-03-24T11:31:11.122Z,101292.98
2018-03-24T11:33:38.847Z,101287.67
2018-03-24T11:36:06.630Z,101281.70
2018-03-24T11:38:34.349Z,101283.65
2018-03-24T11:41:02.131Z,101277.57
2018-03-24T11:43:29.857Z,101278.63
2018-03-24T11:45:57.618Z,101287.75
2018-03-24T11:48:25.338Z,101278.65
2018-03-24T11:50:53.090Z,101279.08
2018-03-24T11:53:20.834Z,101284.09
2018-03-24T11:55:48.619Z,101283.08
2018-03-24T11:58:16.359Z,101276.01
2018-03-24T12:00:44.132Z,101278.30
2018-03-24T12:03:11.872Z,101276.74
2018-03-24T12:05:39.619Z,101275.83
2018-03-24T12:08:07.381Z,101270.75
2018-03-24T12:10:35.108Z,101274.44
2018-03-24T12:13:02.850Z,101272.02
2018-03-24T12:15:30.582Z,101270.63
2018-03-24T12:17:58.313Z,101262.12
2018-03-24T12:20:26.111Z,101257.68
2018-03-24T12:22:53.866Z,101257.54
2018-03-24T12:25:21.557Z,101261.28
2018-03-24T12:27:49.285Z,101260.32
2018-03-24T12:30:16.998Z,101253.30
2018-03-24T12:32:44.718Z,101251.97
2018-03-24T12:35:12.471Z,101245.98
2018-03-24T12:37:40.250Z,101236.40
2018-03-24T12:40:08.097Z,101231.73
2018-03-24T12:42:35.854Z,101242.84
2018-03-24T12:45:03.605Z,101238.92
2018-03-24T12:47:31.383Z,101237.37
2018-03-24T12:49:59.075Z,101229.05
2018-03-24T12:52:26.830Z,101229.53
2018-03-24T12:54:54.551Z,101228.41
2018-03-24T12:57:22.314Z,101220.86
2018-03-24T12:59:50.031Z,101216.00
2018-03-24T13:02:17.782Z,101212.16
2018-03-24T13:04:45.494Z,101205.98
2018-03-24T13:07:13.217Z,101208.60
2018-03-24T13:09:40.918Z,101204.45
2018-03-24T13:12:08.719Z,101210.89
2018-03-24T13:14:36.437Z,101201.81
2018-03-24T13:17:04.239Z,101204.78
2018-03-24T13:19:31.987Z,101206.17
2018-03-24T13:21:59.755Z,101203.30
2018-03-24T13:24:27.455Z,101197.17
2018-03-24T13:26:55.195Z,101192.65
2018-03-24T13:29:22.919Z,101192.13
2018-03-24T13:31:50.683Z,101193.92
2018-03-24T13:34:18.410Z,101191.81
2018-03-24T13:36:46.195Z,101194.81
2018-03-24T13:39:13.915Z,101194.47
2018-03-24T13:41:41.646Z,101196.44
2018-03-24T13:44:09.375Z,101195.56
2018-03-24T13:46:37.138Z,101190.64
2018-03-24T13:49:04.878Z,101183.49
2018-03-24T13:51:32.591Z,101180.34
2018-03-24T13:54:00.436Z,101178.30
2018-03-24T13:56:28.168Z,101177.36
2018-03-24T13:58:55.975Z,101175.20
2018-03-24T14:01:23.703Z,101168.19
2018-03-24T14:03:51.451Z,101169.19
2018-03-24T14:06:19.144Z,101175.69
2018-03-24T14:08:46.898Z,101175.11
2018-03-24T14:11:14.620Z,101177.77
2018-03-24T14:13:42.363Z,101177.50
2018-03-24T14:16:10.065Z,101178.52
2018-03-24T14:18:37.881Z,101173.88
2018-03-24T14:21:05.644Z,101170.09
2018-03-24T14:23:33.397Z,101170.95
2018-03-24T14:26:01.130Z,101166.11
2018-03-24T14:28:28.898Z,101169.70
2018-03-24T14:30:56.674Z,101171.86
2018-03-24T14:33:24.421Z,101166.38
2018-03-24T14:35:52.112Z,101164.23
2018-03-24T14:38:19.883Z,101162.84
2018-03-24T14:40:47.639Z,101152.43
2018-03-24T14:43:15.519Z,101153.05
2018-03-24T14:45:43.180Z,101153.88
2018-03-24T14:48:10.995Z,101153.41
2018-03-24T14:50:38.726Z,101149.64
2018-03-24T14:53:06.510Z,101143.86
2018-03-24T14:55:34.249Z,101139.52
2018-03-24T14:58:01.981Z,101136.70
2018-03-24T15:00:29.702Z,101136.80
2018-03-24T15:02:57.477Z,101139.61
2018-03-24T15:05:25.202Z,101135.55
2018-03-24T15:07:52.926Z,101138.27
2018-03-24T15:10:20.651Z,101129.69
2018-03-24T15:12:48.446Z,101130.73
2018-03-24T15:15:16.154Z,101120.63
2018-03-24T15:17:43.872Z,101122.36
2018-03-24T15:20:11.696Z,101124.25
2018-03-24T15:22:39.429Z,101117.38
2018-03-24T15:25:07.132Z,101118.87
2018-03-24T15:27:34.895Z,101126.59
2018-03-24T15:30:14.454Z,101128.84
2018-03-24T15:32:49.928Z,101131.71
2018-03-24T15:35:32.966Z,101133.00
2018-03-24T15:38:00.787Z,101123.30
2018-03-24T15:40:28.610Z,101127.41
2018-03-24T15:42:56.427Z,101128.13
2018-03-24T15:45:24.191Z,101126.85
2018-03-24T15:47:51.956Z,101139.20
2018-03-24T15:50:19.667Z,101139.49
2018-03-24T15:52:47.456Z,101139.55
2018-03-24T15:55:15.185Z,101139.61
2018-03-24T15:57:42.895Z,101139.20
2018-03-24T16:00:10.655Z,101139.08
2018-03-24T16:02:38.334Z,101139.48
2018-03-24T16:05:06.107Z,101137.94
2018-03-24T16:07:33.798Z,101141.13
2018-03-24T16:10:01.529Z,101148.97
2018-03-24T16:12:29.219Z,101154.30
2018-03-24T16:14:56.939Z,101159.77
2018-03-24T16:17:24.655Z,101157.19
2018-03-24T16:19:52.441Z,101151.87
2018-03-24T16:22:20.164Z,101156.38
2018-03-24T16:24:47.914Z,101161.42
2018-03-24T16:27:15.634Z,101160.83
2018-03-24T16:29:43.399Z,101166.50
2018-03-24T16:32:11.118Z,101169.48
2018-03-24T16:34:38.846Z,101168.73
2018-03-24T16:37:06.594Z,101170.36
2018-03-24T16:39:34.360Z,101166.55
2018-03-24T16:42:02.158Z,101170.88
2018-03-24T16:44:29.926Z,101176.59
2018-03-24T16:46:57.661Z,101178.08
2018-03-24T16:49:25.463Z,101175.84
2018-03-24T16:51:53.206Z,101185.45
2018-03-24T16:54:20.950Z,101189.41
2018-03-24T16:56:48.643Z,101187.45
2018-03-24T16:59:16.419Z,101185.36
2018-03-24T17:01:44.147Z,101198.17
2018-03-24T17:04:11.914Z,101192.32
2018-03-24T17:06:39.645Z,101202.30
2018-03-24T17:09:07.399Z,101200.44
2018-03-24T17:11:35.130Z,101197.47
2018-03-24T17:14:02.894Z,101201.44
2018-03-24T17:16:30.597Z,101205.51
2018-03-24T17:18:58.364Z,101201.94
2018-03-24T17:21:26.130Z,101206.11
2018-03-24T17:23:53.849Z,101206.98
2018-03-24T17:26:21.548Z,101214.88
2018-03-24T17:28:49.331Z,101215.03
2018-03-24T17:31:17.040Z,101223.13
2018-03-24T17:33:44.802Z,101223.02
2018-03-24T17:36:12.533Z,101220.13
2018-03-24T17:38:40.262Z,101219.23
2018-03-24T17:41:08.015Z,101226.22
2018-03-24T17:43:35.730Z,101222.27
2018-03-24T17:46:03.524Z,101225.39
2018-03-24T17:48:31.229Z,101229.77
2018-03-24T17:50:58.999Z,101236.93
2018-03-24T17:53:26.735Z,101242.28
2018-03-24T17:55:54.456Z,101239.44
2018-03-24T17:58:22.146Z,101240.61
2018-03-24T18:00:49.874Z,101244.30
2018-03-24T18:03:17.610Z,101250.10
2018-03-24T18:05:45.378Z,101245.03
2018-03-24T18:08:13.130Z,101248.98
2018-03-24T18:10:40.886Z,101255.73
2018-03-24T18:13:08.588Z,101260.03
2018-03-24T18:15:36.325Z,101265.59
2018-03-24T18:18:04.062Z,101260.55
2018-03-24T18:20:31.918Z,101264.97
2018-03-24T18:22:59.614Z,101264.82
2018-03-24T18:25:27.383Z,101272.73
2018-03-24T18:27:55.078Z,101275.72
2018-03-24T18:30:22.831Z,101272.17
2018-03-24T18:32:50.558Z,101285.50
2018-03-24T18:35:18.323Z,101282.79
2018-03-24T18:37:46.054Z,101286.48
2018-03-24T18:40:13.798Z,101284.87
2018-03-24T18:42:41.518Z,101284.34
2018-03-24T18:45:09.287Z,101283.63
2018-03-24T18:47:37.012Z,101285.63
2018-03-24T18:50:04.788Z,101285.34
2018-03-24T18:52:32.506Z,101286.23
2018-03-24T18:55:00.260Z,101287.20
2018-03-24T18:57:27.982Z,101287.70
2018-03-24T18:59:55.738Z,101296.30
2018-03-24T19:02:23.454Z,101299.56
2018-03-24T19:04:51.209Z,101302.56
2018-03-24T19:07:18.943Z,101309.12
2018-03-24T19:09:46.703Z,101301.34
2018-03-24T19:12:14.370Z,101303.81
2018-03-24T19:14:42.163Z,101311.92
2018-03-24T19:17:09.886Z,101303.31
2018-03-24T19:19:37.660Z,101311.87
2018-03-24T19:22:05.397Z,101313.66
2018-03-24T19:24:33.101Z,101313.59
2018-03-24T19:27:00.846Z,101311.25
2018-03-24T19:29:28.530Z,101317.20
2018-03-24T19:31:56.296Z,101321.10
2018-03-24T19:34:23.986Z,101321.98
2018-03-24T19:36:51.762Z,101323.03
2018-03-24T19:39:19.471Z,101327.19
2018-03-24T19:41:47.230Z,101337.19
2018-03-24T19:44:14.955Z,101331.36
2018-03-24T19:46:42.694Z,101332.11
2018-03-24T19:49:10.423Z,101339.45
2018-03-24T19:51:38.197Z,101329.22
2018-03-24T19:54:05.945Z,101337.64
2018-03-24T19:56:33.762Z,101334.93
2018-03-24T19:59:01.502Z,101336.60
2018-03-24T20:01:29.344Z,101340.19
2018-03-24T20:03:57.187Z,101341.75
2018-03-24T20:06:24.912Z,101335.90
2018-03-24T20:08:52.599Z,101335.05
2018-03-24T20:11:20.363Z,101341.91
2018-03-24T20:13:48.091Z,101345.69
2018-03-24T20:16:15.836Z,101343.88
2018-03-24T20:18:43.532Z,101351.34
2018-03-24T20:21:11.339Z,101348.20
2018-03-24T20:23:39.144Z,101353.58
2018-03-24T20:26:06.981Z,101351.38
2018-03-24T20:28:34.723Z,101354.72
2018-03-24T20:31:02.527Z,101345.28
2018-03-24T20:33:30.282Z,101348.95
2018-03-24T20:35:58.127Z,101344.47
2018-03-24T20:38:25.845Z,101349.61
2018-03-24T20:40:53.703Z,101347.97
2018-03-24T20:43:21.531Z,101356.06
2018-03-24T20:45:49.371Z,101355.97
2018-03-24T20:48:17.094Z,101352.39
2018-03-24T20:50:44.904Z,101352.15
2018-03-24T20:53:12.646Z,101348.55
2018-03-24T20:55:40.496Z,101356.46
2018-03-24T20:58:08.216Z,101350.75
2018-03-24T21:00:36.026Z,101349.78
2018-03-24T21:03:03.839Z,101347.16
2018-03-24T21:05:31.569Z,101348.11
2018-03-24T21:07:59.408Z,101344.47
2018-03-24T21:10:27.167Z,101345.42
2018-03-24T21:12:55.007Z,101349.95
2018-03-24T21:15:22.822Z,101355.21
2018-03-24T21:17:50.555Z,101353.51
2018-03-24T21:20:18.338Z,101354.30
2018-03-24T21:22:46.106Z,101348.05
2018-03-24T21:25:13.847Z,101352.84
2018-03-24T21:27:41.722Z,101354.59
2018-03-24T21:30:09.552Z,101350.82
2018-03-24T21:32:37.355Z,101360.03
2018-03-24T21:35:05.094Z,101359.58
2018-03-24T21:37:32.943Z,101365.92
2018-03-24T21:40:00.682Z,101363.01
2018-03-24T21:42:28.518Z,101368.86
2018-03-24T21:44:56.281Z,101371.52
2018-03-24T21:47:24.057Z,101373.41
2018-03-24T21:49:51.794Z,101382.59
2018-03-24T21:52:19.630Z,101380.20
2018-03-24T21:54:47.366Z,101385.23
2018-03-24T21:57:15.215Z,101387.38
2018-03-24T21:59:42.934Z,101390.67
2018-03-24T22:02:10.768Z,101389.16
2018-03-24T22:04:38.540Z,101393.11
2018-03-24T22:07:06.328Z,101386.07
2018-03-24T22:09:34.076Z,101390.06
2018-03-24T22:12:01.939Z,101395.22
2018-03-24T22:14:29.783Z,101391.70
2018-03-24T22:16:57.651Z,101392.84
2018-03-24T22:19:25.418Z,101398.02
2018-03-24T22:21:53.198Z,101403.47
2018-03-24T22:24:20.992Z,101400.84
2018-03-24T22:26:49.035Z,101401.55
2018-03-24T22:29:16.759Z,101402.06
2018-03-24T22:31:44.596Z,101412.98
2018-03-24T22:34:12.341Z,101407.58
2018-03-24T22:36:40.182Z,101414.81
2018-03-24T22:39:07.901Z,101419.52
2018-03-24T22:41:35.649Z,101418.80
2018-03-24T22:44:03.446Z,101437.34
2018-03-24T22:46:31.149Z,101438.30
2018-03-24T22:48:59.058Z,101439.59
2018-03-24T22:51:26.870Z,101440.62
2018-03-24T22:53:54.666Z,101436.70
2018-03-24T22:56:22.414Z,101432.88
2018-03-24T22:58:50.222Z,101434.03
2018-03-24T23:01:20.974Z,101442.98
2018-03-24T23:03:48.777Z,101443.52
2018-03-24T23:06:16.506Z,101438.05
2018-03-24T23:08:44.366Z,101445.88
2018-03-24T23:11:12.089Z,101443.41
2018-03-24T23:13:39.932Z,101449.61
2018-03-24T23:16:07.740Z,101451.63
2018-03-24T23:18:35.581Z,101449.30
2018-03-24T23:21:03.414Z,101447.35
2018-03-24T23:23:31.263Z,101456.97
2018-03-24T23:25:58.993Z,101459.64
2018-03-24T23:28:26.842Z,101460.49
2018-03-24T23:30:54.682Z,101465.42
2018-03-24T23:33:22.522Z,101461.20
2018-03-24T23:35:50.353Z,101465.68
2018-03-24T23:38:18.155Z,101463.67
2018-03-24T23:40:45.922Z,101469.12
2018-03-24T23:43:13.721Z,101463.15
2018-03-24T23:45:41.468Z,101460.66
2018-03-24T23:48:09.288Z,101463.67
2018-03-24T23:50:37.042Z,101461.30
2018-03-24T23:53:04.882Z,101454.53
2018-03-24T23:55:32.917Z,101464.53
2018-03-24T23:58:00.655Z,101455.13
